Observations at @wa for Latest


K63S 280055Z AUTO 14004KT 10SM CLR 17/07 A2979 RMK A01=
K63S 280115Z AUTO 17006KT 10SM CLR 17/06 A2979 RMK A01=
K63S 280135Z AUTO 16005KT 10SM CLR 16/05 A2978 RMK A01=
KALW 280053Z 19012KT 10SM OVC070 14/10 A2993 RMK AO2 RAE44 SLP133 P0000
 T01390100=
KAWO 280056Z AUTO 25009KT 10SM SCT039 BKN047 OVC055 15/08 A2994 RMK AO2 SLP143
 T01500083=
KBFI 280053Z 23009G19KT 10SM SCT035 SCT070 SCT110 15/09 A2996 RMK AO2 SLP143
 T01500089=
KBLI 280053Z 24008KT 10SM FEW050 SCT070 OVC085 15/10 A2993 RMK AO2 SLP142
 T01500100=
KCLM 280053Z AUTO 32009G15KT 10SM BKN028 12/07 A2996 RMK AO2 SLP145 T01220067=
KCLM 280110Z AUTO 31007G17KT 10SM SCT028 12/07 A2995 RMK AO2 T01170067=
KCLM 280126Z AUTO 31011G16KT 10SM BKN029 12/07 A2995 RMK AO2 T01170067=
KCLM 280134Z AUTO 31010KT 10SM BKN030 12/07 A2995 RMK AO2 T01170067=
KEAT 280055Z AUTO 30014KT 10SM SCT080 BKN100 18/00 A2983 RMK AO2 SLP097
 T01830000=
KELN 280053Z AUTO 31018G22KT 10SM BKN100 BKN120 16/03 A2987 RMK AO2 SLP115
 T01560033=
KEPH 280053Z AUTO 22008KT 10SM FEW120 18/01 A2983 RMK AO2 SLP098 T01830011=
KFHR 280053Z AUTO 22009G14KT 10SM CLR 16/06 A2994 RMK AO2 SLP137 T01610061=
KGEG 280053Z 25017KT 10SM FEW055 SCT110 OVC150 16/03 A2985 RMK AO2 SLP104 VCSH
 SE-S W SHRA DSNT ALQDS T01560033=
KGRF 280058Z 20006KT 10SM FEW023 BKN039 12/09 A2997 RMK AO2A RAB30E53 SLP153
 P0002 T01220094 $=
KHQM 280053Z AUTO 25011KT 10SM FEW021 BKN034 OVC044 13/08 A2999 RMK AO2 SLP160
 T01330078=
KKLS 280056Z AUTO 30006KT 10SM FEW021 BKN039 OVC060 14/09 A3001 RMK AO2 SLP165
 T01390094=
KMWH 280052Z 24012KT 10SM CLR 18/02 A2984 RMK AO2 SLP103 T01780022=
KNOW 280055Z AUTO 29010G15KT 10SM SCT075 13/08 A2995 RMK AO2 T01270079=
KNOW 280115Z AUTO 30011G17KT 10SM SCT075 13/08 A2995 RMK AO2 T01270077=
KNOW 280135Z AUTO 28011G17KT 10SM SCT075 13/08 A2995 RMK AO2 T01250077=
KNUW 280056Z 25011KT 10SM SCT035 BKN075 BKN110 BKN220 13/08 A2997 RMK SLP149
 T01280083 55147=
KOLM 280054Z 23006G16KT 10SM SCT026 BKN039 OVC060 13/08 A2999 RMK AO2 RAE01
 SLP154 P0000 T01280083=
KOMK 280053Z AUTO 27010G18KT 10SM CLR 20/M02 A2977 RMK AO2 WSHFT 2340 SLP077
 T02001017=
KORS 280055Z AUTO 32004KT 10SM BKN055 OVC065 14/09 A2993 RMK AO2=
KORS 280115Z AUTO 00000KT 10SM BKN050 OVC060 14/09 A2992 RMK AO2=
KORS 280135Z AUTO 00000KT 10SM SCT050 OVC060 14/08 A2993 RMK AO2=
KPAE 280053Z 20014G20KT 10SM CLR 16/06 A2994 RMK AO2 SLP138 T01560056=
KPSC 280053Z 22010KT 10SM SCT055 BKN070 21/06 A2989 RMK AO2 SLP121 T02060061=
KPUW 280053Z AUTO 25006KT 8SM -RA FEW022 SCT042 OVC065 12/09 A2991 RMK AO2
 RAB27 SLP130 P0000 T01220094=
KPWT 280056Z AUTO 22016G21KT 10SM CLR 14/09 A2995 RMK AO2 PK WND 24027/0028
 SLP147 T01440089=
KRNT 280053Z 20008KT 10SM CLR 16/08 A2996 RMK AO2 SLP149 T01560078=
KSEA 280053Z 21012KT 10SM SCT027 SCT120 BKN250 15/09 A2996 RMK AO2 SLP152
 T01500089=
KSFF 280053Z 25011G15KT 10SM FEW050 SCT100 17/06 A2985 RMK AO2 SLP100 T01720056=
KSFF 280053Z COR 250121G20KT 10SM FEW050 SCT100 17/06 A2985 RMK AO2 SLP100
 T01720056=
KSHN 280053Z AUTO 26011KT 10SM FEW022 SCT042 13/08 A2996 RMK AO2 RAE2356 SLP147
 P0000 T01330083=
KSKA 280058Z 24015KT 10SM CLR 15/05 A2984 RMK AO2A SLP105 T01470052 PWINO $=
KSMP 280056Z AUTO 9SM BKN010 OVC015 04/03 A2994 RMK AO2 RAE06 CIG 007V013
 SLP143 P0000 T00440028=
KTCM 280058Z AUTO 27009G21KT 7SM RA BKN027 OVC048 11/11 A2999 RMK AO2
 RAB14E23RAB52 BKN V OVC SLP160 P0001 T01140112 $=
KTCM 280052Z AUTO 26013G21KT 10SM -RA OVC027 12/11 A2999 RMK AO2 RAB14E23RAB52
 SLP160 $=
KTCM 280058Z AUTO 27009G21KT 7SM RA BKN027 OVC048 11/11 A2999 RMK AO2
 RAB14E23RAB52 BKN V OVC SLP160 P0001 T01140112 $=
KTCM 280108Z AUTO 26009KT 4SM -RA SCT025 OVC048 11/11 A2998 RMK AO2 SLP157 $=
KTCM 280117Z AUTO 24008KT 10SM FEW023 SCT042 OVC050 12/12 A2998 RMK AO2 RAE17
 SLP157 $=
KTIW 280053Z 24007KT 10SM -RA BKN025 BKN030 12/11 A2998 RMK AO2 RAB36 SLP150
 P0002 T01220106=
KUIL 280053Z AUTO 21007G15KT 10SM FEW019 BKN029 OVC100 12/08 A2997 RMK AO2
 SLP150 T01170078 $=
KVUO 280053Z AUTO 12003KT 10SM FEW033 BKN050 OVC090 14/11 A3000 RMK AO2 RAE48
 SLP158 P0005 T01390106=
KYKM 280053Z AUTO 28015KT 10SM CLR 18/03 A2987 RMK AO2 SLP111 T01780028=